ADDS METAR Data INFO
IDs: Format: Raw Decoded Include TAF

Data at: 1245 UTC 19 Oct 2017

KTVL 191153Z AUTO 00000KT 10SM CLR M01/M05 A3008 RMK AO2 SLP153 T10061050 10028 21011 55010
KTVL 191053Z AUTO 00000KT 10SM CLR M01/M04 A3008 RMK AO2 SLP150 T10061044
KTVL 190953Z AUTO 00000KT 10SM CLR 00/M04 A3010 RMK AO2 SLP157 T00001044
KTVL 190853Z AUTO 00000KT 10SM CLR 00/M04 A3011 RMK AO2 SLP163 T00001044 58008
KTVL 190753Z AUTO 00000KT 10SM CLR 01/M04 A3013 RMK AO2 SLP168 T00061039 402061039
KTVL 190653Z AUTO 00000KT 10SM CLR 01/M04 A3013 RMK AO2 SLP173 T00111039
KTVL 190553Z AUTO 00000KT 10SM CLR 03/M03 A3014 RMK AO2 SLP177 T00281028 10183 20028 58003
KTVL 190453Z AUTO 00000KT 10SM CLR 04/M03 A3015 RMK AO2 SLP188 T00391028
KTVL 190353Z AUTO 21003KT 10SM CLR 06/M02 A3015 RMK AO2 SLP200 T00611017
KTVL 190253Z AUTO 00000KT 10SM CLR 11/M02 A3015 RMK AO2 SLP197 T01061022 55001
KTVL 190153Z AUTO VRB04KT 10SM CLR 13/M01 A3015 RMK AO2 SLP195 T01281011
KTVL 190053Z AUTO 21004KT 10SM CLR 14/00 A3015 RMK AO2 SLP189 T01440000
KTVL 182353Z AUTO VRB04KT 10SM CLR 18/M01 A3016 RMK AO2 SLP184 T01781011 10206 20128 56012
KTVL 182253Z AUTO 04005KT 10SM CLR 19/M03 A3017 RMK AO2 SLP184 T01941033
KTVL 182153Z AUTO VRB03KT 10SM CLR 19/M05 A3018 RMK AO2 SLP191 T01941050
KTVL 182053Z AUTO 03006KT 10SM CLR 19/M04 A3020 RMK AO2 SLP196 T01891039 58018
KTVL 181953Z AUTO 10SM CLR 18/00 A3023 RMK AO2 SLP209 T01780000
KTVL 181853Z AUTO 04006KT 10SM CLR 17/M01 A3025 RMK AO2 SLP216 T01671006
KTVL 181753Z AUTO VRB03KT 10SM CLR 13/M03 A3026 RMK AO2 SLP226 T01331028 10133 21039 58002
KTVL 181653Z AUTO 00000KT 10SM CLR 08/M06 A3028 RMK AO2 SLP237 T00831056
KTVL 181553Z AUTO 18004KT 10SM CLR 01/M06 A3028 RMK AO2 SLP249 T00061061
KTVL 181453Z AUTO 00000KT 10SM CLR M03/M08 A3027 RMK AO2 SLP249 T10331078 51004
KTVL 181353Z AUTO 00000KT 10SM CLR M04/M08 A3027 RMK AO2 SLP241 T10391083
KTVL 181253Z AUTO 00000KT 10SM CLR M03/M08 A3027 RMK AO2 SLP234 T10331078
KTVL 181153Z AUTO 00000KT 10SM CLR M03/M08 A3025 RMK AO2 SLP221 T10281078 10011 21028 58007
KTVL 181053Z AUTO 00000KT 10SM CLR M02/M08 A3026 RMK AO2 SLP220 T10221078
KTVL 180953Z AUTO 19004KT 10SM CLR M03/M07 A3029 RMK AO2 SLP229 T10281072
KTVL 180853Z AUTO 00000KT 10SM CLR M02/M07 A3028 RMK AO2 SLP222 T10171072 58004
KTVL 180753Z AUTO 00000KT 10SM CLR M01/M07 A3028 RMK AO2 SLP226 T10111072 402001033
KTVL 180653Z AUTO 00000KT 10SM CLR M01/M07 A3030 RMK AO2 SLP232 T10061067
KTVL 180553Z AUTO 00000KT 10SM CLR 00/M07 A3029 RMK AO2 SLP232 T00001067 10172 20000 51005
KTVL 180453Z AUTO 00000KT 10SM CLR 02/M06 A3029 RMK AO2 SLP234 T00171061
KTVL 180353Z AUTO 00000KT 10SM CLR 04/M05 A3029 RMK AO2 SLP245 T00391050
KTVL 180253Z AUTO 00000KT 10SM CLR 06/M05 A3027 RMK AO2 SLP249 T00561050 53002
KTVL 180153Z AUTO 00000KT 10SM CLR 09/M06 A3027 RMK AO2 SLP241 T00891061
KTVL 180053Z AUTO 00000KT 10SM CLR 13/M06 A3026 RMK AO2 SLP230 T01331056